»·PEaware :: N3891R KOXR-KSNA

N3891R :: KOXR-KSNA

FLIGHT INFORMATION

Flight Status: Arrived
Operator: Privately registered:
United States
More flights under this callsign
Pilot: Markus B. (22479)
Aircraft: BEECH AIRCRAFT BARON
(BE58)
More flights by this aircraft type
Origin: KOXR Oxnard
United States
Destination: KSNA John Wayne-Orange Co
United States
More flights between these airports :: More routes between these airports
Route: VTU044R GINNA V326 VNY V186 BAYJY V363 POXKU V8 SLI
File this flight plan on PilotEdge
Remarks: TEC route VTUP7
Altitude:
(Current/Filed)
5,000ft
Speed:
(Current/Filed)
180kts
Departed: 29-Mar-20 11:08 AM
Arrived: 29-Mar-20 11:45 AM
Distance/Time
Traveled:
74nm/0:37
Distance/Time
To Go:
Arrived

Flight Plot

Page will automatically refresh every two minutes.


Map Options




Map Legend


Flown Route
Filed Route
Departure Airport
Arrival Airport
Navaid (VOR, NDB)
Fix

Horizontal Profiles

Position Reports

Time Latitude Longitude Heading Altitude Ground
Speed
29-Mar-20 10:49 34.199041 -119.205658 359 39ft 0kts
29-Mar-20 10:50 34.199041 -119.205658 359 39ft 0kts
29-Mar-20 10:51 34.199041 -119.205658 359 39ft 0kts
29-Mar-20 10:52 34.199041 -119.205658 359 39ft 0kts
29-Mar-20 10:53 34.199041 -119.205658 359 39ft 0kts
29-Mar-20 10:54 34.199041 -119.205658 359 39ft 0kts
29-Mar-20 10:55 34.199041 -119.205658 359 39ft 0kts
29-Mar-20 10:56 34.199041 -119.205658 359 39ft 0kts
29-Mar-20 10:57 34.199041 -119.205658 359 39ft 0kts
29-Mar-20 10:58 34.199041 -119.205658 359 39ft 0kts
29-Mar-20 10:59 34.199041 -119.205658 359 39ft 0kts
29-Mar-20 11:00 34.199041 -119.205658 359 39ft 0kts
29-Mar-20 11:01 34.199041 -119.205658 359 39ft 0kts
29-Mar-20 11:02 34.199041 -119.205658 359 39ft 0kts
29-Mar-20 11:03 34.199284 -119.205659 1 39ft 9kts
29-Mar-20 11:04 34.199735 -119.197978 84 43ft 16kts
29-Mar-20 11:05 34.199936 -119.197572 24 43ft 0kts
29-Mar-20 11:06 34.200603 -119.197588 326 43ft 10kts
29-Mar-20 11:07 34.200335 -119.229737 266 618ft 137kts
29-Mar-20 11:08 34.198530 -119.269415 267 2466ft 116kts
29-Mar-20 11:09 34.211782 -119.295393 22 3943ft 113kts
29-Mar-20 11:10 34.225224 -119.260580 72 4893ft 144kts
29-Mar-20 11:11 34.220984 -119.204871 93 4833ft 179kts
29-Mar-20 11:12 34.220205 -119.144040 89 4803ft 182kts
29-Mar-20 11:13 34.220529 -119.082745 89 4806ft 182kts
29-Mar-20 11:14 34.220950 -119.021696 89 4807ft 182kts
29-Mar-20 11:15 34.221355 -118.960676 89 4807ft 182kts
29-Mar-20 11:16 34.221731 -118.899479 89 4807ft 182kts
29-Mar-20 11:17 34.222077 -118.838430 89 4807ft 182kts
29-Mar-20 11:18 34.222393 -118.777235 89 4807ft 182kts
29-Mar-20 11:19 34.222679 -118.716077 89 4807ft 182kts
29-Mar-20 11:20 34.222934 -118.654936 89 4807ft 182kts
29-Mar-20 11:21 34.223159 -118.593769 89 4807ft 182kts
29-Mar-20 11:22 34.223354 -118.532583 89 4807ft 182kts
29-Mar-20 11:23 34.217225 -118.472678 108 4832ft 180kts
29-Mar-20 11:24 34.200187 -118.414966 109 4812ft 181kts
29-Mar-20 11:25 34.182845 -118.357677 109 4808ft 182kts
29-Mar-20 11:26 34.165630 -118.301057 110 4807ft 182kts
29-Mar-20 11:27 34.148143 -118.243661 110 4807ft 182kts
29-Mar-20 11:28 34.130653 -118.186370 110 4807ft 182kts
29-Mar-20 11:29 34.113092 -118.128957 110 4807ft 182kts
29-Mar-20 11:30 34.095553 -118.071734 110 4807ft 182kts
29-Mar-20 11:31 34.077937 -118.014361 110 4807ft 182kts
29-Mar-20 11:32 34.060318 -117.957090 110 4807ft 182kts
29-Mar-20 11:33 34.042690 -117.899902 110 4827ft 181kts
29-Mar-20 11:34 34.025044 -117.842761 110 4826ft 182kts
29-Mar-20 11:35 34.000679 -117.790228 155 4538ft 191kts
29-Mar-20 11:36 33.946576 -117.783806 169 3815ft 200kts
29-Mar-20 11:37 33.895599 -117.765643 162 3866ft 177kts
29-Mar-20 11:38 33.849893 -117.748884 166 3720ft 156kts
29-Mar-20 11:39 33.818812 -117.775297 225 3523ft 140kts
29-Mar-20 11:40 33.785461 -117.799010 205 2569ft 148kts
29-Mar-20 11:41 33.749102 -117.822269 207 1607ft 146kts
29-Mar-20 11:42 33.717280 -117.842459 207 830ft 97kts
29-Mar-20 11:43 33.695729 -117.856192 207 502ft 112kts
29-Mar-20 11:44 33.670389 -117.872173 190 60ft 19kts
29-Mar-20 11:45 33.669225 -117.871713 130 60ft 0kts
29-Mar-20 11:46 33.669075 -117.871332 102 60ft 7kts
29-Mar-20 11:47 33.671013 -117.868519 108 60ft 10kts

Navigation Log

Ident Type
Flight plan parsing failed, navigation log unavailable